Time;durP1;ratioP1;P1;durP2;ratioP2;P2;SDS_P1;SDS_P2;PMS_P1;PMS_P2;Temp;Humidity;BMP_temperature;BMP_pressure;BME280_temperature;BME280_humidity;BME280_pressure;Samples;Min_cycle;Max_cycle;Signal;HPM_P1;HPM_P2
2021/11/02 00:00:39;;;;;;;839.25;423.98;;;;;;;;;;5059708;28;20024;-77
2021/11/02 00:03:05;;;;;;;839.05;426.83;;;;;;;;;;5060217;28;20039;-77
2021/11/02 00:05:32;;;;;;;834.55;424.25;;;;;;;;;;5071989;28;20571;-78
2021/11/02 00:07:58;;;;;;;838.10;422.33;;;;;;;;;;5077770;28;20387;-77
2021/11/02 00:10:25;;;;;;;834.78;420.92;;;;;;;;;;5075009;28;20036;-77
2021/11/02 00:12:51;;;;;;;838.45;420.98;;;;;;;;;;5059570;28;20119;-78
2021/11/02 00:15:26;;;;;;;835.40;413.63;;;;;;;;;;5059897;28;20381;-78
2021/11/02 00:17:56;;;;;;;839.42;415.60;;;;;;;;;;5081069;28;20043;-79
2021/11/02 00:20:22;;;;;;;843.23;418.67;;;;;;;;;;5076579;28;20519;-77
2021/11/02 00:22:56;;;;;;;840.78;425.08;;;;;;;;;;5078253;28;20024;-77
2021/11/02 00:25:29;;;;;;;843.30;418.77;;;;;;;;;;5072003;28;20031;-77
2021/11/02 00:27:59;;;;;;;837.80;410.75;;;;;;;;;;5070696;28;20127;-77
2021/11/02 00:30:25;;;;;;;836.08;410.73;;;;;;;;;;5052545;28;20027;-77
2021/11/02 00:32:53;;;;;;;842.65;420.08;;;;;;;;;;5085252;28;20115;-76
2021/11/02 00:35:20;;;;;;;836.42;410.23;;;;;;;;;;5068513;28;20445;-79
2021/11/02 00:37:46;;;;;;;843.10;420.48;;;;;;;;;;5067657;28;20312;-77
2021/11/02 00:40:13;;;;;;;842.63;422.65;;;;;;;;;;5068539;28;20032;-78
2021/11/02 00:42:51;;;;;;;835.97;406.88;;;;;;;;;;5073781;28;20116;-77
2021/11/02 00:45:26;;;;;;;837.50;413.00;;;;;;;;;;5063167;28;20077;-78
2021/11/02 00:47:53;;;;;;;838.25;410.92;;;;;;;;;;5076846;28;20048;-77
2021/11/02 00:50:19;;;;;;;836.50;410.15;;;;;;;;;;5062481;28;20034;-78
2021/11/02 00:52:45;;;;;;;834.50;408.90;;;;;;;;;;5076145;28;20463;-78
2021/11/02 00:55:11;;;;;;;840.15;411.30;;;;;;;;;;5048937;28;20025;-78
2021/11/02 00:57:37;;;;;;;840.13;411.00;;;;;;;;;;5058231;28;20131;-77
2021/11/02 01:00:04;;;;;;;830.78;401.60;;;;;;;;;;5066870;28;20040;-77
2021/11/02 01:02:30;;;;;;;839.38;414.00;;;;;;;;;;5085472;28;20634;-77
2021/11/02 01:04:56;;;;;;;838.15;406.98;;;;;;;;;;5066936;28;20035;-77
2021/11/02 01:07:22;;;;;;;835.55;403.17;;;;;;;;;;5066855;28;20040;-78
2021/11/02 01:09:48;;;;;;;838.13;413.92;;;;;;;;;;5050800;28;20116;-77
2021/11/02 01:12:14;;;;;;;841.40;412.77;;;;;;;;;;5057784;28;20253;-77
2021/11/02 01:14:40;;;;;;;840.67;418.20;;;;;;;;;;5070038;28;20084;-78
2021/11/02 01:17:06;;;;;;;844.03;422.35;;;;;;;;;;5076295;28;20032;-78
2021/11/02 01:19:32;;;;;;;837.75;405.10;;;;;;;;;;5066115;28;20339;-78
2021/11/02 01:21:59;;;;;;;834.55;404.27;;;;;;;;;;5076031;28;20080;-78
2021/11/02 01:24:24;;;;;;;839.72;413.58;;;;;;;;;;5064555;28;20032;-78
2021/11/02 01:26:50;;;;;;;844.08;420.33;;;;;;;;;;5076426;28;20032;-78
2021/11/02 01:29:16;;;;;;;840.35;410.58;;;;;;;;;;5075319;28;20472;-77
2021/11/02 01:31:43;;;;;;;843.90;419.90;;;;;;;;;;5074623;28;20093;-78
2021/11/02 01:34:10;;;;;;;836.78;404.17;;;;;;;;;;5066076;28;20248;-77
2021/11/02 01:36:36;;;;;;;837.17;408.27;;;;;;;;;;5079774;28;20054;-77
2021/11/02 01:39:03;;;;;;;832.40;395.10;;;;;;;;;;5048608;28;20044;-77
2021/11/02 01:41:29;;;;;;;840.53;409.70;;;;;;;;;;5049773;28;20021;-77
2021/11/02 01:43:57;;;;;;;836.47;405.27;;;;;;;;;;5075927;28;20380;-78
2021/11/02 01:46:23;;;;;;;832.25;399.85;;;;;;;;;;5078174;28;20025;-78
2021/11/02 01:48:50;;;;;;;833.92;403.80;;;;;;;;;;5048969;28;20024;-76
2021/11/02 01:51:16;;;;;;;835.13;402.42;;;;;;;;;;5077702;28;20017;-77
2021/11/02 01:53:42;;;;;;;827.20;391.75;;;;;;;;;;5065891;28;20355;-77
2021/11/02 01:56:10;;;;;;;824.95;396.23;;;;;;;;;;5082624;28;20024;-78
2021/11/02 01:58:36;;;;;;;830.38;398.23;;;;;;;;;;5069282;28;20028;-77
2021/11/02 02:01:03;;;;;;;832.03;401.17;;;;;;;;;;5065392;28;20160;-77
2021/11/02 02:03:47;;;;;;;830.25;402.92;;;;;;;;;;5075563;28;20062;-78
2021/11/02 02:06:23;;;;;;;825.72;398.60;;;;;;;;;;5066983;28;20168;-78
2021/11/02 02:08:48;;;;;;;828.38;403.52;;;;;;;;;;5057089;28;20039;-78
2021/11/02 02:11:24;;;;;;;832.60;406.15;;;;;;;;;;5055614;28;20398;-78
2021/11/02 02:13:59;;;;;;;828.33;401.20;;;;;;;;;;5067193;28;20412;-77
2021/11/02 02:16:32;;;;;;;831.78;402.35;;;;;;;;;;5065824;28;20409;-78
2021/11/02 02:18:58;;;;;;;834.42;407.75;;;;;;;;;;5071261;28;20029;-78
2021/11/02 02:21:43;;;;;;;830.90;395.55;;;;;;;;;;5059454;28;20020;-79
2021/11/02 02:24:25;;;;;;;831.97;403.92;;;;;;;;;;5050689;28;20110;-78
2021/11/02 02:27:09;;;;;;;830.40;392.65;;;;;;;;;;5072760;28;20540;-77
2021/11/02 02:29:38;;;;;;;831.47;402.67;;;;;;;;;;5052543;28;20073;-78
2021/11/02 02:32:10;;;;;;;830.45;393.60;;;;;;;;;;5061605;28;20043;-78
2021/11/02 02:34:36;;;;;;;832.35;401.70;;;;;;;;;;5069738;28;20079;-79
2021/11/02 02:37:04;;;;;;;830.25;396.73;;;;;;;;;;5069773;28;20656;-78
2021/11/02 02:39:31;;;;;;;824.88;398.67;;;;;;;;;;5066249;28;20049;-78
2021/11/02 02:41:57;;;;;;;829.67;395.65;;;;;;;;;;5058201;28;20040;-77
2021/11/02 02:44:25;;;;;;;828.95;395.20;;;;;;;;;;5078677;28;20035;-79
2021/11/02 02:46:51;;;;;;;829.92;399.00;;;;;;;;;;5084385;28;20028;-77
2021/11/02 02:49:18;;;;;;;830.38;394.98;;;;;;;;;;5068187;28;20032;-77
2021/11/02 02:51:44;;;;;;;835.78;396.35;;;;;;;;;;5054526;28;20435;-78
2021/11/02 02:54:13;;;;;;;841.00;405.45;;;;;;;;;;5079193;28;20028;-77
2021/11/02 02:56:46;;;;;;;842.30;414.83;;;;;;;;;;5060734;28;20495;-78
2021/11/02 02:59:13;;;;;;;842.83;406.15;;;;;;;;;;5058132;28;20036;-78
2021/11/02 03:01:39;;;;;;;840.88;405.48;;;;;;;;;;5059310;28;20057;-78
2021/11/02 03:04:14;;;;;;;841.67;407.33;;;;;;;;;;5055852;28;20085;-78
2021/11/02 03:06:42;;;;;;;845.30;416.98;;;;;;;;;;5080904;28;20516;-77
2021/11/02 03:09:09;;;;;;;842.40;408.48;;;;;;;;;;5085342;28;20016;-77
2021/11/02 03:11:35;;;;;;;840.90;411.60;;;;;;;;;;5070192;28;20025;-76
2021/11/02 03:14:04;;;;;;;842.30;406.15;;;;;;;;;;5076439;28;20021;-78
2021/11/02 03:16:41;;;;;;;844.08;415.27;;;;;;;;;;5057514;28;20016;-78
2021/11/02 03:19:30;;;;;;;838.55;398.40;;;;;;;;;;5081514;28;20039;-78
2021/11/02 03:44:16;;;;;;;838.85;399.70;;;;;;;;;;5077444;28;20114;-78
2021/11/02 03:52:09;;;;;;;836.70;399.55;;;;;;;;;;5080440;28;20089;-79
2021/11/02 04:22:28;;;;;;;839.90;405.25;;;;;;;;;;5086023;28;20484;-78
2021/11/02 04:32:42;;;;;;;834.17;388.50;;;;;;;;;;5084275;28;20024;-76
2021/11/02 04:35:10;;;;;;;839.80;400.50;;;;;;;;;;5067163;28;20085;-78
2021/11/02 05:46:54;;;;;;;839.58;393.13;;;;;;;;;;5084066;28;20047;-77
2021/11/02 05:57:32;;;;;;;841.38;390.73;;;;;;;;;;5012159;28;20030;-78
2021/11/02 06:00:06;;;;;;;834.50;387.88;;;;;;;;;;5074670;28;20035;-78
2021/11/02 06:08:35;;;;;;;840.30;397.92;;;;;;;;;;5083319;28;20083;-77
2021/11/02 06:30:11;;;;;;;846.42;410.30;;;;;;;;;;5075758;28;20082;-77
2021/11/02 06:32:40;;;;;;;843.72;409.58;;;;;;;;;;5067351;28;20028;-78
2021/11/02 06:35:30;;;;;;;850.50;420.23;;;;;;;;;;5083043;28;20020;-79
2021/11/02 06:38:14;;;;;;;844.70;404.37;;;;;;;;;;5075559;28;20020;-78
2021/11/02 06:43:54;;;;;;;845.22;402.92;;;;;;;;;;5076548;28;20389;-77
2021/11/02 06:54:11;;;;;;;840.20;394.92;;;;;;;;;;5087554;28;20059;-78
2021/11/02 07:16:12;;;;;;;839.90;396.95;;;;;;;;;;5073554;28;20410;-79
2021/11/02 07:18:38;;;;;;;850.55;428.00;;;;;;;;;;5063337;28;20095;-77
2021/11/02 07:21:25;;;;;;;846.53;419.50;;;;;;;;;;5042523;28;20512;-77
2021/11/02 07:23:59;;;;;;;848.92;421.75;;;;;;;;;;5043451;28;20168;-78
2021/11/02 07:26:43;;;;;;;848.42;422.10;;;;;;;;;;5036464;28;20033;-77
2021/11/02 07:29:35;;;;;;;843.40;405.77;;;;;;;;;;5036827;28;20025;-78
2021/11/02 08:47:09;;;;;;;866.55;514.83;;;;;;;;;;5086410;28;20047;-78
2021/11/02 08:49:41;;;;;;;863.55;513.20;;;;;;;;;;5062619;28;20047;-78
2021/11/02 08:52:07;;;;;;;861.25;494.50;;;;;;;;;;5064005;28;20032;-77
2021/11/02 08:54:36;;;;;;;855.08;476.50;;;;;;;;;;5083477;28;20020;-78
2021/11/02 08:57:02;;;;;;;862.05;502.05;;;;;;;;;;5082339;28;20019;-79
2021/11/02 08:59:28;;;;;;;869.25;524.70;;;;;;;;;;5084952;28;20316;-78
2021/11/02 09:01:58;;;;;;;864.72;506.33;;;;;;;;;;5085502;28;20027;-77
2021/11/02 09:04:30;;;;;;;864.53;505.25;;;;;;;;;;5061071;28;20028;-77
2021/11/02 09:06:58;;;;;;;876.63;546.65;;;;;;;;;;5065448;28;20036;-77
2021/11/02 09:09:24;;;;;;;877.47;545.53;;;;;;;;;;5081701;28;20146;-76
2021/11/02 09:11:54;;;;;;;874.33;549.33;;;;;;;;;;5068135;28;20081;-79
2021/11/02 09:14:25;;;;;;;871.77;536.53;;;;;;;;;;5056426;28;20476;-76
2021/11/02 09:16:51;;;;;;;875.58;557.50;;;;;;;;;;5084379;28;20280;-77
2021/11/02 09:19:18;;;;;;;875.63;557.58;;;;;;;;;;5058937;28;20925;-77
2021/11/02 09:21:44;;;;;;;882.47;576.42;;;;;;;;;;5064578;28;20028;-77
2021/11/02 09:24:10;;;;;;;879.45;574.63;;;;;;;;;;5061617;28;20029;-77
2021/11/02 09:26:40;;;;;;;890.70;612.55;;;;;;;;;;5060300;28;20028;-77
2021/11/02 09:29:06;;;;;;;892.35;617.55;;;;;;;;;;5063167;28;20586;-77
2021/11/02 09:31:34;;;;;;;887.85;606.28;;;;;;;;;;5084015;28;20343;-77
2021/11/02 09:34:00;;;;;;;895.08;630.80;;;;;;;;;;5060290;28;20480;-76
2021/11/02 09:36:37;;;;;;;894.15;616.70;;;;;;;;;;5064484;28;20028;-78
2021/11/02 09:39:05;;;;;;;894.22;626.70;;;;;;;;;;5081650;28;20012;-78
2021/11/02 09:41:49;;;;;;;900.80;638.20;;;;;;;;;;5065361;28;20020;-77
2021/11/02 09:44:45;;;;;;;885.63;594.90;;;;;;;;;;5068798;28;20028;-77
2021/11/02 09:47:14;;;;;;;901.40;648.65;;;;;;;;;;5078906;28;20581;-76
2021/11/02 09:50:00;;;;;;;901.95;652.40;;;;;;;;;;5090658;28;20028;-77
2021/11/02 09:52:35;;;;;;;900.55;646.42;;;;;;;;;;5073831;28;20028;-77
2021/11/02 09:55:40;;;;;;;901.42;648.25;;;;;;;;;;5073516;28;20055;-76
2021/11/02 09:58:23;;;;;;;895.28;629.53;;;;;;;;;;5000707;28;20033;-77
2021/11/02 10:00:50;;;;;;;894.33;627.45;;;;;;;;;;4995155;28;20040;-77
2021/11/02 10:03:19;;;;;;;906.03;671.17;;;;;;;;;;5051593;28;20036;-77
2021/11/02 10:06:01;;;;;;;909.28;678.25;;;;;;;;;;5074084;28;20388;-75
2021/11/02 10:08:36;;;;;;;893.58;628.83;;;;;;;;;;5068190;28;20036;-77
2021/11/02 10:11:24;;;;;;;913.22;689.38;;;;;;;;;;5067368;28;20028;-77
2021/11/02 10:14:04;;;;;;;897.15;644.05;;;;;;;;;;5076413;28;20032;-76
2021/11/02 10:16:34;;;;;;;909.35;683.00;;;;;;;;;;5091757;28;20028;-78
2021/11/02 10:19:19;;;;;;;904.72;665.30;;;;;;;;;;5090253;28;20093;-76
2021/11/02 10:22:04;;;;;;;906.78;674.97;;;;;;;;;;5091996;28;20029;-77
2021/11/02 10:24:30;;;;;;;904.53;664.38;;;;;;;;;;5073609;28;20032;-78
2021/11/02 10:27:02;;;;;;;899.92;654.35;;;;;;;;;;5091969;28;20617;-77
2021/11/02 10:29:38;;;;;;;899.83;659.33;;;;;;;;;;5073821;28;20759;-76
2021/11/02 10:32:07;;;;;;;900.53;656.67;;;;;;;;;;5091941;28;20696;-76
2021/11/02 10:34:42;;;;;;;906.03;676.67;;;;;;;;;;5080107;28;20487;-77
2021/11/02 10:37:12;;;;;;;918.17;707.35;;;;;;;;;;5085766;28;20101;-77
2021/11/02 10:39:43;;;;;;;908.70;687.00;;;;;;;;;;5065076;28;20028;-76
2021/11/02 10:42:11;;;;;;;907.45;680.05;;;;;;;;;;5087113;28;20032;-77
2021/11/02 10:44:40;;;;;;;903.85;673.78;;;;;;;;;;5083110;28;20054;-76
2021/11/02 10:47:17;;;;;;;919.00;709.72;;;;;;;;;;5064090;28;20063;-77
2021/11/02 10:49:46;;;;;;;909.45;683.42;;;;;;;;;;5064151;28;20544;-77
2021/11/02 10:52:13;;;;;;;914.45;700.60;;;;;;;;;;5067021;28;20036;-77
2021/11/02 10:54:41;;;;;;;913.67;700.53;;;;;;;;;;5089679;28;20067;-77
2021/11/02 10:57:34;;;;;;;917.88;706.55;;;;;;;;;;5071228;28;20148;-77
2021/11/02 11:00:02;;;;;;;905.35;668.65;;;;;;;;;;5069045;28;20052;-76
2021/11/02 11:02:29;;;;;;;908.15;679.45;;;;;;;;;;5084831;28;20063;-77
2021/11/02 11:04:57;;;;;;;916.67;707.72;;;;;;;;;;5070207;28;20045;-77
2021/11/02 11:07:23;;;;;;;914.67;700.20;;;;;;;;;;5070930;28;20028;-77
2021/11/02 11:09:52;;;;;;;909.80;687.30;;;;;;;;;;5070690;28;20035;-77
2021/11/02 11:12:19;;;;;;;912.13;696.45;;;;;;;;;;5066842;28;20042;-77
2021/11/02 11:14:46;;;;;;;924.00;729.67;;;;;;;;;;5070957;28;20027;-76
2021/11/02 11:17:16;;;;;;;917.38;714.58;;;;;;;;;;5062301;28;20563;-77
2021/11/02 11:20:00;;;;;;;922.08;726.15;;;;;;;;;;5081877;28;20250;-77
2021/11/02 11:22:28;;;;;;;919.05;710.05;;;;;;;;;;5065881;28;20047;-76
2021/11/02 11:25:03;;;;;;;916.25;708.47;;;;;;;;;;5064257;28;20073;-78
2021/11/02 11:27:29;;;;;;;919.95;725.78;;;;;;;;;;5065138;28;20039;-77
2021/11/02 11:30:00;;;;;;;914.85;712.53;;;;;;;;;;5085018;28;20083;-78
2021/11/02 11:32:26;;;;;;;912.75;703.35;;;;;;;;;;5066569;28;20388;-77
2021/11/02 11:34:52;;;;;;;919.78;727.17;;;;;;;;;;5067089;28;20040;-75
2021/11/02 11:37:22;;;;;;;923.45;734.25;;;;;;;;;;5061278;28;20020;-76
2021/11/02 11:39:52;;;;;;;921.70;731.50;;;;;;;;;;5062357;28;20103;-77
2021/11/02 11:42:18;;;;;;;921.45;734.40;;;;;;;;;;5062209;28;20028;-76
2021/11/02 11:44:49;;;;;;;918.97;722.28;;;;;;;;;;5067494;28;20028;-77
2021/11/02 11:47:22;;;;;;;919.53;729.38;;;;;;;;;;5075202;28;20058;-76
2021/11/02 11:49:49;;;;;;;912.25;711.13;;;;;;;;;;5063725;28;20549;-77
2021/11/02 11:52:20;;;;;;;915.95;719.45;;;;;;;;;;5070280;28;20073;-76
2021/11/02 11:54:47;;;;;;;915.17;716.63;;;;;;;;;;5068924;28;20027;-76
2021/11/02 11:57:15;;;;;;;917.03;723.55;;;;;;;;;;5066926;28;20020;-76
2021/11/02 11:59:41;;;;;;;918.30;725.75;;;;;;;;;;5070719;28;20024;-76
2021/11/02 12:02:13;;;;;;;915.88;721.13;;;;;;;;;;5084241;28;20020;-77
2021/11/02 12:04:46;;;;;;;919.97;725.88;;;;;;;;;;5083672;28;20032;-76
2021/11/02 12:07:26;;;;;;;920.95;730.33;;;;;;;;;;5087733;28;20035;-77
2021/11/02 12:09:53;;;;;;;918.55;726.20;;;;;;;;;;5081487;28;20031;-78
2021/11/02 12:12:22;;;;;;;920.30;730.63;;;;;;;;;;5084646;28;20133;-77
2021/11/02 12:14:58;;;;;;;920.83;734.13;;;;;;;;;;5078024;28;20032;-77
2021/11/02 12:17:24;;;;;;;926.38;741.83;;;;;;;;;;5078657;28;20124;-76
2021/11/02 12:20:00;;;;;;;919.67;731.42;;;;;;;;;;5066677;28;20047;-76
2021/11/02 12:22:32;;;;;;;919.95;731.78;;;;;;;;;;5070297;28;20101;-77
2021/11/02 12:25:06;;;;;;;921.92;744.08;;;;;;;;;;5069153;28;20205;-77
2021/11/02 12:27:44;;;;;;;923.50;742.97;;;;;;;;;;5065108;28;20028;-77
2021/11/02 12:30:11;;;;;;;923.45;741.83;;;;;;;;;;5049516;28;20032;-77
2021/11/02 12:32:45;;;;;;;925.42;748.45;;;;;;;;;;5068628;28;20033;-77
2021/11/02 12:35:15;;;;;;;926.08;750.60;;;;;;;;;;5069325;28;20032;-78
2021/11/02 12:37:54;;;;;;;923.00;742.67;;;;;;;;;;5069637;28;20122;-77
2021/11/02 12:40:50;;;;;;;924.35;744.38;;;;;;;;;;5086806;28;20024;-77
2021/11/02 12:43:36;;;;;;;917.38;722.03;;;;;;;;;;5070075;28;20408;-77
2021/11/02 12:46:03;;;;;;;918.90;731.33;;;;;;;;;;5079050;28;20040;-78
2021/11/02 12:48:30;;;;;;;922.55;737.50;;;;;;;;;;5084727;28;20031;-77
2021/11/02 12:50:57;;;;;;;924.80;749.38;;;;;;;;;;5051045;28;20028;-77
2021/11/02 12:53:23;;;;;;;917.72;735.42;;;;;;;;;;5077759;28;20028;-77
2021/11/02 12:55:50;;;;;;;922.13;742.08;;;;;;;;;;5070396;28;20119;-77
2021/11/02 12:58:17;;;;;;;925.25;751.47;;;;;;;;;;5084776;28;20028;-78
2021/11/02 13:00:51;;;;;;;926.00;753.35;;;;;;;;;;5086957;28;20077;-76
2021/11/02 13:03:20;;;;;;;920.25;737.67;;;;;;;;;;5068598;28;20471;-77
2021/11/02 13:06:00;;;;;;;930.90;762.15;;;;;;;;;;5067497;28;20036;-77
2021/11/02 13:08:50;;;;;;;921.50;744.37;;;;;;;;;;5070861;28;20032;-78
2021/11/02 13:11:21;;;;;;;918.55;740.72;;;;;;;;;;5073048;28;20474;-77
2021/11/02 13:13:57;;;;;;;923.63;753.25;;;;;;;;;;5068797;28;20039;-77
2021/11/02 13:16:24;;;;;;;925.15;753.08;;;;;;;;;;5085039;28;20031;-77
2021/11/02 13:18:50;;;;;;;927.60;760.08;;;;;;;;;;5067711;28;20105;-78
2021/11/02 13:21:20;;;;;;;926.13;763.55;;;;;;;;;;5082273;28;20021;-77
2021/11/02 13:23:48;;;;;;;927.05;760.83;;;;;;;;;;5068672;28;20228;-77
2021/11/02 13:26:16;;;;;;;928.83;765.97;;;;;;;;;;5061263;28;20059;-76
2021/11/02 13:28:42;;;;;;;924.78;758.17;;;;;;;;;;5070895;28;20345;-76
2021/11/02 13:31:24;;;;;;;924.17;762.83;;;;;;;;;;5090110;28;20487;-77
2021/11/02 13:34:00;;;;;;;927.92;767.83;;;;;;;;;;5062606;28;20032;-77
2021/11/02 13:36:26;;;;;;;929.05;765.47;;;;;;;;;;5072161;28;20021;-77
2021/11/02 13:39:02;;;;;;;927.83;763.92;;;;;;;;;;5086244;28;20232;-76
2021/11/02 13:41:30;;;;;;;924.53;756.72;;;;;;;;;;5086906;28;20032;-77
2021/11/02 13:43:59;;;;;;;934.22;777.42;;;;;;;;;;5069235;28;20036;-77
2021/11/02 13:46:26;;;;;;;925.00;755.38;;;;;;;;;;5075637;28;20112;-77
2021/11/02 13:48:56;;;;;;;927.33;753.50;;;;;;;;;;5082913;28;20032;-77
2021/11/02 13:51:23;;;;;;;925.53;758.07;;;;;;;;;;5087160;28;20032;-77
2021/11/02 13:53:49;;;;;;;929.55;760.10;;;;;;;;;;5065150;28;20050;-76
2021/11/02 13:56:20;;;;;;;930.92;767.55;;;;;;;;;;5068871;28;20087;-77
2021/11/02 13:58:46;;;;;;;934.72;778.63;;;;;;;;;;5067822;28;20423;-77
2021/11/02 14:01:31;;;;;;;932.55;779.55;;;;;;;;;;5086438;28;20027;-77
2021/11/02 14:04:00;;;;;;;932.75;770.90;;;;;;;;;;5068089;28;20064;-77
2021/11/02 14:06:27;;;;;;;935.90;778.80;;;;;;;;;;5068053;28;20042;-77
2021/11/02 14:08:56;;;;;;;932.45;772.83;;;;;;;;;;5068047;28;20082;-77
2021/11/02 14:11:23;;;;;;;927.65;766.95;;;;;;;;;;5068728;28;20043;-77
2021/11/02 14:13:50;;;;;;;934.60;781.85;;;;;;;;;;5086743;28;20097;-76
2021/11/02 14:16:27;;;;;;;931.60;778.88;;;;;;;;;;5085135;28;20028;-76
2021/11/02 14:18:53;;;;;;;932.88;774.88;;;;;;;;;;5066136;28;20056;-77
2021/11/02 14:21:38;;;;;;;929.30;768.90;;;;;;;;;;5053600;28;20032;-77
2021/11/02 14:24:05;;;;;;;928.85;763.53;;;;;;;;;;5062680;28;20035;-77
2021/11/02 14:26:37;;;;;;;934.72;780.65;;;;;;;;;;5087271;28;20375;-77
2021/11/02 14:29:10;;;;;;;930.42;769.17;;;;;;;;;;5074456;28;20579;-77
2021/11/02 14:31:40;;;;;;;929.80;760.40;;;;;;;;;;5084634;28;20043;-77
2021/11/02 14:34:07;;;;;;;930.88;769.30;;;;;;;;;;5074425;28;20036;-77
2021/11/02 14:36:38;;;;;;;929.88;765.50;;;;;;;;;;5090359;28;20509;-77
2021/11/02 14:39:04;;;;;;;930.28;768.53;;;;;;;;;;5090677;28;20024;-76
2021/11/02 14:41:34;;;;;;;939.75;772.22;;;;;;;;;;5079838;28;20020;-77
2021/11/02 14:44:00;;;;;;;;;;;;;;;;;;5071883;28;20527;-78
2021/11/02 14:46:32;;;;;;;922.20;730.40;;;;;;;;;;5084220;28;19909;-78
2021/11/02 14:48:58;;;;;;;926.95;744.83;;;;;;;;;;5074043;28;20025;-77
2021/11/02 14:51:25;;;;;;;928.72;753.05;;;;;;;;;;5068028;28;20035;-77
2021/11/02 14:53:53;;;;;;;920.85;741.08;;;;;;;;;;5089341;28;20119;-78
2021/11/02 14:56:20;;;;;;;925.83;757.30;;;;;;;;;;5089587;28;20031;-77
2021/11/02 14:58:53;;;;;;;927.78;765.53;;;;;;;;;;5088635;28;20025;-77
2021/11/02 15:01:23;;;;;;;929.97;767.05;;;;;;;;;;5089505;28;20032;-78
2021/11/02 15:03:57;;;;;;;928.03;768.53;;;;;;;;;;5089296;28;20424;-78
2021/11/02 15:06:31;;;;;;;927.15;761.80;;;;;;;;;;5070295;28;20113;-78
2021/11/02 15:08:58;;;;;;;921.83;748.58;;;;;;;;;;5071162;28;20036;-78
2021/11/02 15:11:24;;;;;;;928.97;767.47;;;;;;;;;;5067704;28;20059;-77
2021/11/02 15:13:57;;;;;;;923.83;753.10;;;;;;;;;;5056463;28;20064;-78
2021/11/02 15:16:24;;;;;;;930.40;765.72;;;;;;;;;;5051829;28;20128;-78
2021/11/02 15:18:51;;;;;;;924.90;748.97;;;;;;;;;;5067265;28;20044;-79
2021/11/02 15:21:27;;;;;;;920.63;744.10;;;;;;;;;;5051018;28;20017;-79
2021/11/02 15:23:53;;;;;;;924.60;745.25;;;;;;;;;;5068795;28;20050;-80
2021/11/02 15:26:19;;;;;;;925.53;750.55;;;;;;;;;;5069239;28;20021;-79
2021/11/02 15:28:46;;;;;;;922.17;736.97;;;;;;;;;;5066684;28;20081;-79
2021/11/02 15:31:13;;;;;;;925.42;747.20;;;;;;;;;;5071173;28;20445;-79
2021/11/02 15:33:42;;;;;;;919.00;723.08;;;;;;;;;;5070383;28;20061;-80
2021/11/02 15:36:09;;;;;;;923.60;730.83;;;;;;;;;;5070922;28;20373;-79
2021/11/02 15:38:35;;;;;;;921.65;735.92;;;;;;;;;;5070628;28;20438;-79
2021/11/02 15:41:15;;;;;;;924.53;744.40;;;;;;;;;;5071220;28;20024;-79
2021/11/02 15:44:17;;;;;;;915.90;719.20;;;;;;;;;;5070746;28;20439;-79
2021/11/02 15:46:43;;;;;;;919.00;724.58;;;;;;;;;;5028907;28;20040;-79
2021/11/02 15:49:10;;;;;;;924.53;742.08;;;;;;;;;;5087294;28;20392;-80
2021/11/02 15:51:51;;;;;;;925.90;744.47;;;;;;;;;;5070990;28;20043;-80
2021/11/02 15:54:19;;;;;;;919.90;731.13;;;;;;;;;;5070863;28;20024;-80
2021/11/02 15:56:52;;;;;;;923.25;750.10;;;;;;;;;;5070728;28;20080;-79
2021/11/02 15:59:22;;;;;;;919.60;734.10;;;;;;;;;;5070476;28;20111;-79
2021/11/02 16:01:50;;;;;;;;;;;;;;;;;;5070930;28;20021;-80
2021/11/02 16:04:16;;;;;;;910.72;689.47;;;;;;;;;;5069248;28;19934;-80
2021/11/02 16:06:52;;;;;;;912.13;699.25;;;;;;;;;;5068323;28;20560;-80
2021/11/02 16:09:18;;;;;;;920.38;726.50;;;;;;;;;;5067873;28;20388;-80
2021/11/02 16:11:44;;;;;;;918.38;718.75;;;;;;;;;;5085460;28;20036;-80
2021/11/02 16:14:10;;;;;;;918.40;724.25;;;;;;;;;;5069382;28;20032;-79
2021/11/02 16:16:36;;;;;;;913.22;710.55;;;;;;;;;;5070126;28;20030;-80
2021/11/02 16:19:03;;;;;;;914.50;712.08;;;;;;;;;;5036856;28;1067484;-80
2021/11/02 16:21:32;;;;;;;912.88;706.20;;;;;;;;;;5087715;28;20024;-79
2021/11/02 16:24:06;;;;;;;916.17;718.00;;;;;;;;;;5087607;28;20024;-79
2021/11/02 16:26:32;;;;;;;912.85;697.25;;;;;;;;;;5072175;28;20052;-79
2021/11/02 16:29:08;;;;;;;918.95;716.28;;;;;;;;;;5088399;28;20020;-78
2021/11/02 16:31:34;;;;;;;918.83;722.80;;;;;;;;;;5074314;28;20365;-79
2021/11/02 16:34:14;;;;;;;924.17;711.67;;;;;;;;;;5069207;28;20472;-79
2021/11/02 16:36:40;;;;;;;924.95;711.90;;;;;;;;;;5085550;28;20124;-80
2021/11/02 16:39:15;;;;;;;918.00;715.92;;;;;;;;;;5075301;28;20024;-79
2021/11/02 16:41:43;;;;;;;916.50;712.80;;;;;;;;;;5087908;28;20066;-79
2021/11/02 16:44:10;;;;;;;920.70;726.20;;;;;;;;;;5067939;28;20111;-80
2021/11/02 16:46:47;;;;;;;923.08;725.22;;;;;;;;;;5050921;28;20559;-79
2021/11/02 16:49:15;;;;;;;913.85;706.85;;;;;;;;;;5064182;28;20020;-80
2021/11/02 16:51:45;;;;;;;910.63;702.53;;;;;;;;;;5069498;28;20060;-79
2021/11/02 16:54:31;;;;;;;910.72;694.42;;;;;;;;;;5088402;28;20024;-79
2021/11/02 16:57:09;;;;;;;917.85;712.28;;;;;;;;;;5073407;28;20020;-80
2021/11/02 16:59:57;;;;;;;914.85;703.33;;;;;;;;;;5066357;28;20027;-79
2021/11/02 17:02:30;;;;;;;909.03;690.35;;;;;;;;;;5073672;28;20100;-80
2021/11/02 17:05:13;;;;;;;911.90;689.13;;;;;;;;;;5088705;28;20476;-79
2021/11/02 17:07:39;;;;;;;918.90;715.45;;;;;;;;;;5068550;28;20108;-80
2021/11/02 17:10:14;;;;;;;914.00;700.95;;;;;;;;;;5088820;28;20090;-79
2021/11/02 17:12:40;;;;;;;912.17;680.83;;;;;;;;;;5072019;28;20024;-79
2021/11/02 17:15:07;;;;;;;912.28;695.78;;;;;;;;;;5071071;28;20048;-80
2021/11/02 17:17:41;;;;;;;908.58;689.25;;;;;;;;;;5062104;28;20056;-78
2021/11/02 17:20:10;;;;;;;908.42;687.58;;;;;;;;;;5088196;28;20020;-80
2021/11/02 17:22:37;;;;;;;915.42;706.72;;;;;;;;;;5069925;28;20323;-79
2021/11/02 17:25:03;;;;;;;915.42;709.45;;;;;;;;;;5088429;28;20361;-78
2021/11/02 17:27:29;;;;;;;913.40;700.80;;;;;;;;;;5069528;28;20055;-80
2021/11/02 17:29:55;;;;;;;902.05;672.20;;;;;;;;;;5071085;28;20024;-79
2021/11/02 17:32:21;;;;;;;910.63;687.88;;;;;;;;;;5069126;28;20492;-80
2021/11/02 17:34:48;;;;;;;919.58;715.13;;;;;;;;;;5088017;28;20024;-81
2021/11/02 17:37:14;;;;;;;920.53;721.58;;;;;;;;;;5086031;28;20037;-81
2021/11/02 17:39:40;;;;;;;915.67;704.78;;;;;;;;;;5069901;28;20149;-81
2021/11/02 17:42:09;;;;;;;916.08;705.92;;;;;;;;;;5069775;28;20036;-80
2021/11/02 17:44:37;;;;;;;920.88;724.75;;;;;;;;;;5069630;28;20024;-80
2021/11/02 17:47:09;;;;;;;924.40;726.10;;;;;;;;;;5069693;28;20039;-81
2021/11/02 17:49:35;;;;;;;922.50;735.28;;;;;;;;;;5064378;28;20024;-81
2021/11/02 17:52:01;;;;;;;919.20;720.53;;;;;;;;;;5054276;28;20301;-81
2021/11/02 17:54:27;;;;;;;921.85;735.08;;;;;;;;;;5049275;28;20051;-81
2021/11/02 17:56:54;;;;;;;922.58;729.22;;;;;;;;;;5049574;28;20024;-80
2021/11/02 17:59:21;;;;;;;921.03;730.53;;;;;;;;;;5072116;28;20508;-81
2021/11/02 18:01:48;;;;;;;923.63;733.47;;;;;;;;;;5078980;28;20020;-81
2021/11/02 18:04:15;;;;;;;921.20;730.88;;;;;;;;;;5080004;28;20033;-81
2021/11/02 18:06:42;;;;;;;922.88;733.13;;;;;;;;;;5087165;28;20032;-81
2021/11/02 18:09:08;;;;;;;928.38;742.10;;;;;;;;;;5068415;28;20376;-80
2021/11/02 18:11:34;;;;;;;923.78;732.65;;;;;;;;;;5068860;28;20028;-81
2021/11/02 18:14:00;;;;;;;931.40;746.55;;;;;;;;;;5065364;28;20059;-80
2021/11/02 18:16:26;;;;;;;926.35;738.95;;;;;;;;;;5071086;28;20039;-81
2021/11/02 18:18:58;;;;;;;927.20;746.15;;;;;;;;;;5074144;28;20094;-81
2021/11/02 18:21:25;;;;;;;921.67;734.15;;;;;;;;;;5069013;28;20441;-81
2021/11/02 18:23:51;;;;;;;922.72;736.15;;;;;;;;;;5087141;28;20447;-81
2021/11/02 18:26:20;;;;;;;922.45;738.92;;;;;;;;;;5068764;28;20119;-81
2021/11/02 18:28:46;;;;;;;926.60;752.88;;;;;;;;;;5086942;28;20404;-81
2021/11/02 18:31:12;;;;;;;922.25;742.25;;;;;;;;;;5068749;28;20039;-81
2021/11/02 18:33:39;;;;;;;923.72;736.78;;;;;;;;;;5068683;28;20020;-80
2021/11/02 18:36:05;;;;;;;923.35;741.25;;;;;;;;;;5087050;28;20061;-81
2021/11/02 18:38:32;;;;;;;924.92;740.60;;;;;;;;;;5085375;28;20024;-81
2021/11/02 18:40:58;;;;;;;922.25;734.83;;;;;;;;;;5085745;28;20512;-80
2021/11/02 18:43:28;;;;;;;919.90;730.25;;;;;;;;;;5085417;28;20024;-80